Tribhuvan International Airport
VNKT : now visible

Airfield :











YOU CAN JOIN US ON...

 
LOGIN :

Register | Disclaimer

   EN    FR    IT 

 









Legend :    VFR   Marginal VFR   IFR   Intensive IFR   Very Intensive IFR
Visi :
Ceiling :
>= 8 km
>= 3000ft
5 to 8 km
1000 to 3000 ft
1500m to 5 km
500 to 1000 ft
800 to 1500m
200 to 500 ft
< 800m
< 200 ft
Symbols :   Thunderstorms  Fog  Heavy snow  Heavy precipitations  Wind > 20 kt






- Airport Elevation : 4390 ft
- IATA code : KTM


VNKT - Tribhuvan International

CURRENT METAR :
  • 061150Z VRB02KT 9999 FEW010 BKN250 27/23 Q1006 NOSIG

EXPIRED METARs :
  • 061120Z VRB02KT 9999 FEW010 BKN250 27/23 Q1006 NOSIG
  • 061050Z 04003KT 8000 FEW010 SCT030 BKN100 26/23 Q1006 NOSIG
  • 061020Z VRB02KT 8000 FEW010 SCT030 BKN100 26/23 Q1007 NOSIG
  • 060950Z 00000KT 8000 FEW010 SCT030 BKN100 24/23 Q1007 NOSIG
  • 060920Z 00000KT 7000 -RA FEW010 FEW025CB SCT030 BKN100 24/22 Q1007 NOSIG CB TO SE AND S

TAF TAF VNKT
Valid from the 06 at 12:00 until the 07 at 12:00 UTC


061100Z 0612/0712 07005KT 8000 FEW010 SCT030 BKN100
PROB30 0613/0619 18008KT 5000 -RA FEW025CB
BECMG 0614/0615 21004KT 7000 FEW010 SCT025 BKN100
BECMG 0700/0702 00000KT 6000 FEW008 SCT025 BKN100
BECMG 0704/0705 15004KT 8000 FEW010 SCT025 BKN100
BECMG 0707/0709 25008KT 9999 FEW015 SCT025 BKN100
PROB40 0708/0712 VRB12KT 4000 -TSRA FEW025CB OVC090
VNSM FIR / Asia



MET'MAP, your aeronautical weather chart ! - Copyright ORBIFLY December 2007 - Disclaimer

ORBIFLY MET'MAP TEAM :

Programming & Development : Alexandra Zaïnal
Concept & original design : Baudouin d'Aumeries
Assistance for programming : Marc-Olivier Méhu
Technical & hardware support : Manuel Goepfert

Contact : metmap@orbifly.com




SOURCES & CREDITS :

   NOAA       Earth
Advisory